Huvudsida
METAR-TAF:

METAR-TAF

Flygplatser :

Conakry International Airport

Conakry, Guinea

latitud: 09-34N, longitud: 013-37W, höjd: 26 m

Aktuellt väderrapport

Denna rapport gjordes för 1 timme och 50 minuter sedan, klockan 20:00 UTC
Vind 4 kt från väst
Temperatur 28°C
Fuktighet 74%
Tryck 1011 hPa
Sikt: 4000 m
torrdis

METAR: GUCY 142000Z 27004KT 4000 HZ NSC 28/23 Q1011 NOSIG

Tid: 21:50 (21:50 UTC)

Väderprognos

Denna rapport gjordes för 4 timmar och 50 minuter sedan, klockan 17:00 UTC
Prognos gäller från 14 kl. 18 UTC till 15 kl. 24 UTC
Vind 8 kt från väst
Sikt: 5000 m
Få moln på en höjd av 1600 ft
Spridda moln på en höjd av 12000 ft
torrdis
Sannolikhet 30% :
Temporärt
från 15 kl. 04 UTC till 15 kl. 09 UTC
Vind 2 kt varierande vindriktning
Sikt: 3000 m
fuktdis

TAF: GUCY 141700Z 1418/1524 26008KT 5000 HZ FEW016 SCT120 PROB30 TEMPO 1504/1509 VRB02KT 3000 BR

Aktuella väderrapporter och prognoser från 4000 flygplatser (METAR- och TAF-rapporter).

De tillgängliga stationerna syns som gula och röda prickar på kartan.

För musen över prickarna för att se namnen på stationerna.

Klicka sedan för att få väderrapporter och prognoser.

För att ändra kartan: Klicka på de gröna knapparna med ett svart kors på för att zooma in; den gröna knappen med ett streck på för att zooma ut; eller på de gröna pilarna för angränsande kartor.


METAR-TAF: